Stewart J. Cort — WDC6055 — position and weather

sailwx.info

Track history (hours):
 
Tides and Currents Weather Stations Pressure Air Temp Water Temp Dewpoint Dewpoint Depression Visibility Wind Speed Wind Dir Waves Ship Positions

Stewart J. Cort

Owner: THE INTERLAKE STEAMSHIP COMPANY, Middleburg Heights, OH. More information available from US FCC via Universal Licensing System and Coast Guard Vessel Documentation Center.

Last reported at 2017-Nov-20 03:00 UTC. Time now 2017-Nov-20 04:07 UTC.
Position N 47°06' W 090°48'.

Length 305 m; draft 6.1 m.

Type: Cargo ship. MMSI: 367050550.

Wind from 190 at 6 knots

Barometer 1010.8 mb
Air temperature -0.8 ° C
Water temperature 4.5 ° C

Date/timePositionNaut miles runAvg speedWind from/ knotsBaromVisibWave heightAir tempDewpointWater temp
2017-Nov-20 03:00N 47°06' W 090°48'1413.6 190 / 61010.8 -0.8 4.5
2017-Nov-20 02:00N 47°12' W 090°30'1212.2 220 / 131011.2 -0.9 4.2
2017-Nov-20 01:00N 47°12' W 090°12'1413.6 260 / 181011.2 -1.1 5.0
2017-Nov-20 00:00N 47°18' W 089°54'1212.2 280 / 181010.8 -1.6 4.8
2017-Nov-19 23:00N 47°18' W 089°36'1212.2 270 / 161011.2 -2.1 4.9
2017-Nov-19 22:00N 47°18' W 089°18'1413.6 270 / 191011.2 -2.4 5.1
2017-Nov-19 21:00N 47°24' W 089°00'1212.2 270 / 201010.810.8 -3.3 5.3
2017-Nov-19 20:00N 47°24' W 088°42'1413.6 240 / 181010.8 -3.5 5.2
2017-Nov-19 19:00N 47°30' W 088°24'1212.2 260 / 161010.8 -3.5 5.8
2017-Nov-19 18:00N 47°30' W 088°06'8 8.1 290 / 181010.8 -4.1 5.8
2017-Nov-19 17:00N 47°30' W 087°54'1212.2 310 / 181011.2 -4.9 5.6
2017-Nov-19 16:00N 47°30' W 087°36'1413.6 270 / 161011.5 -5.0 5.3
2017-Nov-19 15:00N 47°24' W 087°18'1010.1 280 / 181011.2 -5.3 4.7
2017-Nov-19 14:00N 47°18' W 087°06'1212.2 320 / 181010.5 -4.2 5.0
2017-Nov-19 13:00N 47°18' W 086°48'1010.1 310 / 181010.2 -4.0 5.4
2017-Nov-19 12:00N 47°12' W 086°36'1413.6 300 / 221009.1 -3.4 5.5
2017-Nov-19 11:00N 47°06' W 086°18'8 8.2 310 / 281008.1 -3.0 5.3
2017-Nov-19 10:00N 47°06' W 086°06'4110.3 360 / 221007.8 -3.1 5.4
2017-Nov-19 06:00N 46°48' W 085°12'1413.7 330 / 201004.1 -0.3 6.5
2017-Nov-19 05:00N 46°42' W 084°54'1010.2 340 / 201003.4 0.5 7.1
2017-Nov-19 04:00N 46°36' W 084°42'1514.6 340 / 231002.0 1.8 7.4
2017-Nov-19 03:00N 46°24' W 084°30'7 7.3 340 / 261001.4 2.3 6.8
2017-Nov-19 02:00N 46°30' W 084°24'4 4.1 010 / 121001.7 1.7 6.0
2017-Nov-19 01:00N 46°30' W 084°18'0 0.0 1001.1 1.8 6.1
2017-Nov-19 00:00N 46°30' W 084°18'0 0.0 350 / 111001.1 2.2 6.2
2017-Nov-18 23:00N 46°30' W 084°18'6 6.0 340 / 101000.5 2.2 6.2
2017-Nov-18 22:00N 46°24' W 084°18'1010.2 340 / 11999.8 2.5 6.2
2017-Nov-18 21:00N 46°18' W 084°06'6 6.0 310 / 61000.1 2.8 5.7
2017-Nov-18 20:00N 46°12' W 084°06'7 7.3 350 / 10999.1 3.5 5.5
2017-Nov-18 19:00N 46°06' W 084°00'1212.0 340 / 10999.4 3.4 4.7
2017-Nov-18 18:00N 45°54' W 084°00'711.7 020 / 14999.1 3.6 5.2
2017-Nov-18 17:24N 45°52' W 084°10'513.0
2017-Nov-18 17:00N 45°52' W 084°17'2210.3
2017-Nov-18 17:00N 45°54' W 084°18'613.2 360 / 12999.4 3.6 7.9
2017-Nov-18 16:30N 45°51' W 084°26'612.9
2017-Nov-18 16:00N 45°51' W 084°36'3230.8
2017-Nov-18 16:00N 45°48' W 084°36'611.6 030 / 131000.1 3.6 7.1
2017-Nov-18 15:30N 45°49' W 084°44'713.1
2017-Nov-18 15:00N 45°49' W 084°53'1110.8
2017-Nov-18 15:00N 45°48' W 084°54'612.8 010 / 101000.5 2.4 7.3
2017-Nov-18 14:30N 45°50' W 085°03'5 9.5
2017-Nov-18 14:01N 45°47' W 085°09'2109.9
2017-Nov-18 14:00N 45°48' W 085°06'713.6 1000.5 3.0 7.8
2017-Nov-18 13:30N 45°43' W 085°12'612.9
2017-Nov-18 13:00N 45°38' W 085°17'2119.2
2017-Nov-18 13:00N 45°36' W 085°18'510.1 340 / 181000.5 4.0 9.8
2017-Nov-18 12:30N 45°32' W 085°23'613.1
2017-Nov-18 12:01N 45°27' W 085°28'3173.0
2017-Nov-18 12:00N 45°30' W 085°30'917.6 040 / 11999.1 5.9 9.8
2017-Nov-18 11:30N 45°22' W 085°34'713.2
2017-Nov-18 11:00N 45°17' W 085°40'3244.3
2017-Nov-18 11:00N 45°18' W 085°36'918.9 160 / 41000.1 6.3 9.7
2017-Nov-18 10:30N 45°11' W 085°45'611.3
2017-Nov-18 10:00N 45°06' W 085°48'1010.4 340 / 131000.1 5.8 9.3
2017-Nov-18 09:00N 45°00' W 086°00'1817.5 340 / 13999.8 5.6 9.0
2017-Nov-18 08:00N 44°48' W 086°18'1312.7 340 / 16999.810.8 5.5 9.2
2017-Nov-18 07:00N 44°36' W 086°24'1312.7 300 1000.1 5.8 9.8
2017-Nov-18 06:00N 44°24' W 086°30'1212.0 280 / 211001.1 6.4 9.3
2017-Nov-18 05:00N 44°12' W 086°30'1312.8 210 / 171001.8 7.4 9.0
2017-Nov-18 04:00N 44°00' W 086°36'1312.8 200 / 191003.2 7.3 8.6
2017-Nov-18 03:00N 43°48' W 086°42'1212.0 180 / 221003.2 6.7 8.5
2017-Nov-18 02:00N 43°36' W 086°42'1312.8 170 / 201003.9 6.8 9.7
2017-Nov-18 01:00N 43°24' W 086°48'1818.0 170 / 201004.9 7.9 9.3
2017-Nov-18 00:00N 43°06' W 086°48'7913.2 170 / 211005.5 7.9 9.2
2017-Nov-17 18:00N 41°48' W 087°06'1312.8 170 / 181014.7 6.2 9.6
2017-Nov-17 17:00N 41°36' W 087°12'4 4.5 170 / 221016.4 5.4 8.7
2017-Nov-17 16:00N 41°36' W 087°06'0 0.0 160 / 141018.1 4.3 8.5
2017-Nov-17 15:00N 41°36' W 087°06'0 0.0 170 / 141019.4 3.1 8.6
2017-Nov-17 14:00N 41°36' W 087°06'0 0.0 170 / 151019.8 2.5 8.6
2017-Nov-17 13:00N 41°36' W 087°06'0 0.0 160 / 141020.8 2.2 8.6
2017-Nov-17 12:00N 41°36' W 087°06'0 0.0 160 / 121021.8 2.3 8.6
2017-Nov-17 11:00N 41°36' W 087°06'0 0.0 180 / 101021.8 2.4 8.7
2017-Nov-17 10:00N 41°36' W 087°06'0 0.0 140 / 71022.8 2.4 8.7
2017-Nov-17 09:00N 41°36' W 087°06'0 0.0 200 / 51023.5 2.4 8.7
2017-Nov-17 08:00N 41°36' W 087°06'0 0.0 180 / 51023.8 2.5 8.8
2017-Nov-17 07:00N 41°36' W 087°06'0 0.0 150 / 91023.8 2.7 8.8
2017-Nov-17 06:00N 41°36' W 087°06'0 0.0 120 / 41023.8 2.9 8.9
2017-Nov-17 05:00N 41°36' W 087°06'0 0.0 150 / 51024.2 3.2 9.0
2017-Nov-17 04:00N 41°36' W 087°06'0 0.0 150 / 91024.5 3.4 9.0
2017-Nov-17 03:00N 41°36' W 087°06'0 0.0 150 / 41025.2 3.7 9.1
2017-Nov-17 02:00N 41°36' W 087°06'0 0.0 340 / 51024.8 3.8 9.1
2017-Nov-17 01:00N 41°36' W 087°06'0 0.0 020 / 31025.2 3.7 9.3
2017-Nov-17 00:00N 41°36' W 087°06'0 0.0 340 / 31025.2 3.8 9.5
2017-Nov-16 23:00N 41°36' W 087°06'0 0.0 340 / 71025.2 3.6 9.6
2017-Nov-16 22:00N 41°36' W 087°06'0 0.0 350 / 71024.5 3.7 9.6
2017-Nov-16 21:00N 41°36' W 087°06'0 0.0 360 / 111024.2 3.6 9.6
2017-Nov-16 20:00N 41°36' W 087°06'0 0.0 360 / 101023.8 3.8 9.5
2017-Nov-16 19:00N 41°36' W 087°06'0 0.0 330 / 71024.2 3.7 9.4
2017-Nov-16 18:00N 41°36' W 087°06'7 7.5 310 / 111023.8 3.4 9.8
2017-Nov-16 17:00N 41°42' W 087°12'1514.7 330 / 141024.2 2.8 9.2
2017-Nov-16 16:00N 41°48' W 087°30'1212.0 320 / 161024.2 5.4 1.6 8.1
2017-Nov-16 15:00N 42°00' W 087°30'1312.8 330 / 151023.2 2.0 7.8
2017-Nov-16 14:00N 42°12' W 087°36'1312.8 340 / 191022.5 1.6 8.1
2017-Nov-16 13:00N 42°24' W 087°42'1212.0 320 / 201021.5 1.7 7.1
2017-Nov-16 12:00N 42°36' W 087°42'1212.0 270 / 191020.4 1.6 6.6
2017-Nov-16 11:00N 42°48' W 087°42'6 6.0 320 / 161019.1 1.9 6.6
2017-Nov-16 10:00N 42°54' W 087°42'7 7.4 330 / 151018.1 1.9 7.0
2017-Nov-16 09:00N 43°00' W 087°48'1212.0 320 / 151017.1 2.0 6.2
2017-Nov-16 08:00N 43°12' W 087°48'1312.8 310 / 281016.4 1.9 5.6
2017-Nov-16 07:00N 43°24' W 087°42'6 6.0 310 / 311014.7 2.0 5.4
2017-Nov-16 06:00N 43°30' W 087°42'1212.0 300 / 271014.0 2.2 5.2
2017-Nov-16 05:00N 43°42' W 087°42'1312.8 300 / 231013.0 2.2 4.9
2017-Nov-16 04:00N 43°54' W 087°36'6 6.0 290 / 301011.3 2.1 4.9
2017-Nov-16 03:00N 44°00' W 087°36'7 7.4 280 / 241011.0 2.1 5.1
2017-Nov-16 02:00N 44°06' W 087°30'1212.0 300 / 261009.3 2.4 5.2
2017-Nov-16 01:00N 44°18' W 087°30'1312.7 280 / 291007.9 4.1 5.2
2017-Nov-16 00:00N 44°30' W 087°24'7 7.4 300 / 211006.9 5.8 6.4
2017-Nov-15 23:00N 44°36' W 087°18'1312.7 290 / 241005.5 6.2 5.6
2017-Nov-15 22:00N 44°48' W 087°12'7 7.4 300 / 211004.5 6.6 6.7
2017-Nov-15 21:00N 44°54' W 087°06'7 7.4 300 / 221003.9 6.5 7.1
2017-Nov-15 20:00N 45°00' W 087°00'1514.7 300 / 171002.810.8 6.6 7.9
2017-Nov-15 19:00N 45°12' W 086°48'7 7.3 260 / 111002.8 6.8 7.9
2017-Nov-15 18:00N 45°18' W 086°42'1312.7 230 / 131003.2 6.6 8.2
2017-Nov-15 17:00N 45°30' W 086°36'1010.3 220 / 181003.9 6.9 8.4
2017-Nov-15 16:00N 45°36' W 086°24'1010.3 210 / 221005.2 5.4 7.7 9.7
2017-Nov-15 15:00N 45°42' W 086°12'1010.3 210 / 231006.6 8.1 9.2
2017-Nov-15 14:00N 45°48' W 086°00'270.6 180 / 211007.6 7.7 9.5
2017-Nov-15 13:57N 45°48' W 085°56'511.3
2017-Nov-15 13:30N 45°50' W 085°50'611.7
2017-Nov-15 13:00N 45°52' W 085°42'2123.1
2017-Nov-15 13:00N 45°54' W 085°42'611.8 170 / 221009.3 7.0 8.3
2017-Nov-15 12:30N 45°54' W 085°34'611.9
2017-Nov-15 12:00N 45°53' W 085°25'169.4
2017-Nov-15 12:00N 45°54' W 085°24'511.0 180 / 251010.3 6.4 8.1
2017-Nov-15 11:30N 45°53' W 085°17'612.1
2017-Nov-15 11:00N 45°52' W 085°08'4243.5
2017-Nov-15 11:00N 45°54' W 085°12'919.3 170 / 181012.0 5.9 7.5
2017-Nov-15 10:30N 45°51' W 084°59'612.2
2017-Nov-15 10:00N 45°50' W 084°51'3197.2
2017-Nov-15 10:00N 45°48' W 084°54'817.3 150 / 161013.7 4.8 7.8
2017-Nov-15 09:30N 45°49' W 084°42'510.8
2017-Nov-15 09:00N 45°51' W 084°35'3217.8
2017-Nov-15 09:00N 45°48' W 084°36'816.4 160 / 211014.7 4.8 8.0
2017-Nov-15 08:30N 45°52' W 084°26'611.8
2017-Nov-15 08:00N 45°54' W 084°18'1312.5 160 / 221016.0 5.5 8.3
2017-Nov-15 07:00N 45°54' W 084°00'7 7.3 180 / 201017.4 5.6 6.6
2017-Nov-15 06:00N 46°00' W 083°54'7 7.3 170 / 121018.1 5.7 4.2
2017-Nov-15 05:00N 46°06' W 084°00'1514.6 160 / 91018.1 5.7 5.6
2017-Nov-15 04:00N 46°18' W 084°12'6 6.0 160 / 151018.1 5.7 6.4
2017-Nov-15 03:00N 46°24' W 084°12'7 7.3 160 / 131018.8 5.6 6.8
2017-Nov-15 02:00N 46°30' W 084°18'4 4.1 140 / 111018.8 5.4 6.8
2017-Nov-15 01:00N 46°30' W 084°24'0 0.0 140 / 61020.3 4.3 6.8
2017-Nov-15 00:00N 46°30' W 084°24'0 0.0 130 / 91020.0 4.1 6.8
2017-Nov-14 23:00N 46°30' W 084°24'7 7.3 130 / 91020.3 3.9 6.8
2017-Nov-14 22:00N 46°24' W 084°30'1514.6 120 / 101020.0 4.7 7.6
2017-Nov-14 21:00N 46°36' W 084°42'1010.2 140 / 181019.6 5.5 8.0
2017-Nov-14 20:00N 46°42' W 084°54'1010.2 150 / 151020.0 6.2 7.9
2017-Nov-14 19:00N 46°48' W 085°06'1413.7 180 / 111020.710.8 5.3 7.0
2017-Nov-14 18:00N 46°54' W 085°24'1413.7 180 / 221020.3 4.6 6.0
2017-Nov-14 17:00N 47°00' W 085°42'5811.6 200 / 231021.3 4.2 6.0
2017-Nov-14 12:00N 47°24' W 087°00'1413.6 180 / 221020.7 4.3 5.3
2017-Nov-14 11:00N 47°30' W 087°18'1212.2 180 / 211021.0 4.4 5.4
2017-Nov-14 10:00N 47°30' W 087°36'1413.5 160 / 181021.0 4.2 5.5
2017-Nov-14 09:00N 47°36' W 087°54'1212.1 180 / 131022.0 3.9 5.9
2017-Nov-14 08:00N 47°36' W 088°12'1413.5 170 / 101022.7 3.6 5.2
2017-Nov-14 07:00N 47°30' W 088°30'1212.2 190 / 221023.0 3.7 6.3
2017-Nov-14 06:00N 47°30' W 088°48'1212.2 170 / 111023.4 3.1 5.5
2017-Nov-14 05:00N 47°30' W 089°06'1413.6 170 / 131023.7 3.8 5.3
2017-Nov-14 04:00N 47°24' W 089°24'1212.2 170 / 151024.0 3.7 5.4
2017-Nov-14 03:00N 47°24' W 089°42'1413.6 130 / 91024.4 3.4 4.9
2017-Nov-14 02:00N 47°18' W 090°00'1212.2 130 / 101024.7 3.4 4.7
2017-Nov-14 01:00N 47°18' W 090°18'1413.6 120 / 81024.7 3.3 4.3
2017-Nov-14 00:00N 47°12' W 090°36'8 8.2 110 / 91025.4 2.4 4.3
2017-Nov-13 23:00N 47°12' W 090°48'1413.6 110 / 91025.4 2.2 4.9
2017-Nov-13 22:00N 47°06' W 091°06'1413.7 110 / 81026.1 2.3 4.8
2017-Nov-13 21:00N 47°00' W 091°24'1010.2 080 / 91026.4 2.0 4.5
2017-Nov-13 20:00N 46°54' W 091°36'1413.7 070 / 41027.1 1.3 4.5
2017-Nov-13 19:00N 46°48' W 091°54'7 7.3 060 / 51027.8 -0.4 4.6
2017-Nov-13 18:00N 46°42' W 092°00'0 0.0 340 / 11029.5 -1.1 1.6
2017-Nov-13 17:00N 46°42' W 092°00'0 0.0 270 1030.1 -2.2 1.8
2017-Nov-13 16:00N 46°42' W 092°00'0 0.0 340 / 11030.5 -3.0 1.7
2017-Nov-13 15:00N 46°42' W 092°00'0 0.0 190 / 11030.1 -4.3 1.6
2017-Nov-13 14:00N 46°42' W 092°00'0 0.0 190 / 31029.8 -5.3 1.1
2017-Nov-13 13:00N 46°42' W 092°00'0 0.0 230 / 21029.8 -6.2 1.1
2017-Nov-13 12:00N 46°42' W 092°00'0 0.0 210 / 51029.5 -6.3 0.9
2017-Nov-13 11:00N 46°42' W 092°00'0 0.0 240 / 41029.8 -6.2 1.1
2017-Nov-13 10:00N 46°42' W 092°00'0 0.0 220 / 41029.5 -5.4 1.2
2017-Nov-13 09:00N 46°42' W 092°00'0 0.0 180 / 51029.8 -5.6 1.4
2017-Nov-13 08:00N 46°42' W 092°00'0 0.0 200 / 41029.8 -3.4 2.1
2017-Nov-13 07:00N 46°42' W 092°00'0 0.0 250 / 31029.8 -1.4 0.9
2017-Nov-13 06:00N 46°42' W 092°00'0 0.0 270 / 31029.5 -0.9 0.8
2017-Nov-13 05:00N 46°42' W 092°00'7 7.3 180 / 31029.5 -0.2 0.4
2017-Nov-13 04:00N 46°48' W 092°06'0 0.0 200 / 21029.1 -0.5 2.1
2017-Nov-13 03:00N 46°48' W 092°06'2 2.4 210 / 21029.5 -0.1 1.9
2017-Nov-13 02:00N 46°46' W 092°06'2713.0
2017-Nov-13 02:00N 46°48' W 092°06'2 4.8 180 / 11028.8 -0.4 2.1
2017-Nov-13 01:30N 46°46' W 092°06'0 0.0
2017-Nov-13 01:00N 46°46' W 092°06'2611.1
2017-Nov-13 01:00N 46°48' W 092°06'2 4.8 270 / 31028.8 -0.5 2.4
2017-Nov-13 00:30N 46°46' W 092°06'0 0.0
2017-Nov-13 00:00N 46°46' W 092°06'2612.6
2017-Nov-13 00:00N 46°48' W 092°06'2 4.8 220 / 21028.8 -0.0 2.3
2017-Nov-12 23:30N 46°46' W 092°06'0 0.0
2017-Nov-12 23:00N 46°46' W 092°06'2612.7
2017-Nov-12 23:00N 46°48' W 092°06'2 4.8 240 / 51028.8 -0.5 2.6
2017-Nov-12 22:30N 46°46' W 092°06'0 0.0
2017-Nov-12 22:00N 46°46' W 092°06'2534.7
2017-Nov-12 22:00N 46°48' W 092°06'2 4.8 270 / 71028.4 -0.3 2.7
2017-Nov-12 21:30N 46°46' W 092°06'0 0.0
2017-Nov-12 21:00N 46°46' W 092°06'2713.0
2017-Nov-12 21:00N 46°48' W 092°06'2 4.8 280 / 81027.8 0.2 2.7
2017-Nov-12 20:30N 46°46' W 092°06'2 4.7
2017-Nov-12 20:00N 46°48' W 092°06'251.5 260 / 61027.8 0.5 2.7
2017-Nov-12 19:57N 46°46' W 092°06'0 0.0
2017-Nov-12 19:30N 46°46' W 092°06'0 0.0
2017-Nov-12 19:00N 46°46' W 092°06'2713.0
2017-Nov-12 19:00N 46°48' W 092°06'2 4.4 220 / 51027.8 0.4 2.7
2017-Nov-12 18:27N 46°46' W 092°06'0 0.0
2017-Nov-12 18:00N 46°46' W 092°06'2777.8
2017-Nov-12 18:00N 46°48' W 092°06'2 4.8 250 / 61028.1 0.4 2.6
2017-Nov-12 17:30N 46°46' W 092°06'0 0.0
2017-Nov-12 17:00N 46°46' W 092°06'2570.4
2017-Nov-12 17:00N 46°48' W 092°06'2 4.8 210 / 51028.4 -0.0 2.6
2017-Nov-12 16:30N 46°46' W 092°06'0 0.0
2017-Nov-12 16:00N 46°46' W 092°06'2536.1
2017-Nov-12 16:00N 46°48' W 092°06'2 4.5 280 / 41028.4 -0.3 2.8
2017-Nov-12 15:28N 46°46' W 092°06'0 0.3
2017-Nov-12 15:00N 46°46' W 092°06'2166.9
2017-Nov-12 15:00N 46°48' W 092°06'1 2.6 310 / 31028.4 -0.5 2.6
2017-Nov-12 14:31N 46°47' W 092°05'611.8
2017-Nov-12 14:01N 46°49' W 091°58'2118.7
2017-Nov-12 14:00N 46°48' W 092°00'917.6 300 / 41027.8 -0.2 4.9
2017-Nov-12 13:30N 46°51' W 091°48'713.1
2017-Nov-12 13:00N 46°54' W 091°40'2127.7
2017-Nov-12 13:00N 46°54' W 091°42'1413.7 310 / 61026.8 0.4 4.7
2017-Nov-12 12:00N 47°00' W 091°24'1212.3 310 / 41026.4 0.7 4.7
2017-Nov-12 11:00N 47°00' W 091°06'1413.7 020 / 51026.4 0.9 5.1
2017-Nov-12 10:00N 47°06' W 090°48'1413.6 020 / 51025.7 1.2 4.9
2017-Nov-12 09:00N 47°12' W 090°30'1413.6 010 / 51025.4 1.0 4.6
2017-Nov-12 08:00N 47°18' W 090°12'1212.2 030 / 61024.7 1.0 5.4
2017-Nov-12 07:00N 47°18' W 089°54'1717.3 050 / 61024.4 0.7 5.1
2017-Nov-12 06:00N 47°24' W 089°30'2412.2 350 / 91023.7 0.5 5.5
2017-Nov-12 04:00N 47°24' W 088°54'1413.6 360 / 81022.410.8 1.3 6.0
2017-Nov-12 03:00N 47°30' W 088°36'1212.2 340 / 91021.7 1.6 6.5
2017-Nov-12 02:00N 47°30' W 088°18'1616.2 200 / 151021.0 0.7 5.4
2017-Nov-12 01:00N 47°30' W 087°54'1010.1 190 / 121021.0 0.2 6.1
2017-Nov-12 00:00N 47°24' W 087°42'1312.7 230 / 141021.3 -0.6 6.2
2017-Nov-11 23:00N 47°12' W 087°36'1312.7 230 / 161020.7 0.6 6.8
2017-Nov-11 22:00N 47°00' W 087°30'1312.7 230 / 121021.0 -0.0 5.4
2017-Nov-11 21:00N 46°48' W 087°24'1312.7 220 / 181020.7 -0.3 7.0
2017-Nov-11 20:00N 46°36' W 087°18'1212.4 220 / 221021.0 -0.8 7.3
2017-Nov-11 19:00N 46°36' W 087°00'1413.7 210 / 241021.0 -0.4 8.0
2017-Nov-11 18:00N 46°42' W 086°42'8 8.2 200 / 251022.0 0.3 7.1
2017-Nov-11 17:00N 46°42' W 086°30'1413.7 200 / 241023.4 0.3 7.0
2017-Nov-11 16:00N 46°48' W 086°12'1616.4 200 / 131024.7 0.4 7.3
2017-Nov-11 15:00N 46°48' W 085°48'1212.3 170 / 241025.1 -0.8 7.3
2017-Nov-11 14:00N 46°48' W 085°30'1212.3 150 / 221027.1 -2.6 6.7
2017-Nov-11 13:00N 46°48' W 085°12'1212.3 150 / 241028.4 -3.6 6.9
2017-Nov-11 12:00N 46°48' W 084°54'1514.6 180 / 251030.5 -2.5 7.9
2017-Nov-11 11:00N 46°36' W 084°42'1010.2 170 / 211031.8 -4.1 8.5
2017-Nov-11 10:00N 46°30' W 084°30'4 4.1 190 / 201032.5 -6.1 7.0
2017-Nov-11 09:00N 46°30' W 084°24'4 4.1 120 / 41033.5 -7.3 6.6
2017-Nov-11 08:00N 46°30' W 084°18'7 7.3 170 / 61034.3 -6.3 6.2
2017-Nov-11 07:00N 46°24' W 084°12'7 7.3 100 / 81034.0 -6.0 6.0
2017-Nov-11 06:00N 46°18' W 084°06'7 7.3 120 / 51034.3 -6.4 6.0
2017-Nov-11 05:00N 46°12' W 084°00'1312.7 120 / 81034.7 -5.1 5.1
2017-Nov-11 04:00N 46°00' W 083°54'1010.3 110 / 41035.3 -4.4 6.4
2017-Nov-11 03:00N 45°54' W 084°06'334.0 200 / 21036.0 -3.4 9.1
2017-Nov-11 02:55N 45°52' W 084°09'513.4
2017-Nov-11 02:31N 45°52' W 084°17'713.2
2017-Nov-11 02:01N 45°51' W 084°26'3188.7
2017-Nov-11 02:00N 45°54' W 084°24'917.7 220 / 81036.4 -4.7 9.3
2017-Nov-11 01:31N 45°51' W 084°35'611.9
2017-Nov-11 01:01N 45°49' W 084°44'183.0
2017-Nov-11 01:00N 45°48' W 084°42'715.2 180 / 71036.4 -4.9 8.6
2017-Nov-11 00:31N 45°50' W 084°52'612.6
2017-Nov-11 00:00N 45°51' W 085°01'3216.4
2017-Nov-11 00:00N 45°48' W 085°00'816.8 150 / 51036.4 -4.5 8.8
2017-Nov-10 23:31N 45°52' W 085°10'712.9
2017-Nov-10 23:00N 45°53' W 085°19'1129.6
2017-Nov-10 23:00N 45°54' W 085°18'715.0 340 / 31036.4 -4.9 9.2
2017-Nov-10 22:30N 45°54' W 085°29'612.3
2017-Nov-10 22:01N 45°53' W 085°37'290.9
2017-Nov-10 22:00N 45°54' W 085°36'816.3 060 / 21036.7 -5.2 8.9
2017-Nov-10 21:31N 45°50' W 085°45'713.1
2017-Nov-10 21:01N 45°46' W 085°54'293.3
2017-Nov-10 21:00N 45°48' W 085°54'1010.3 140 / 21036.7 -5.1 10.2
2017-Nov-10 20:00N 45°42' W 086°06'1514.6 200 / 41036.7 -4.7 10.9
2017-Nov-10 19:00N 45°30' W 086°18'1717.4 070 / 11036.7 -4.8 10.6
2017-Nov-10 18:00N 45°18' W 086°36'1010.4 060 / 41037.0 -5.1 10.3
2017-Nov-10 17:00N 45°12' W 086°48'1514.7 1037.4 -4.7 10.1
2017-Nov-10 16:00N 45°00' W 087°00'1312.7 330 / 141037.4 -5.3 9.5
2017-Nov-10 15:00N 44°48' W 087°06'1312.7 330 / 181037.0 -6.1 10.2
2017-Nov-10 14:00N 44°36' W 087°12'1312.7 340 / 161036.4 -6.2 9.4
2017-Nov-10 13:00N 44°24' W 087°18'6 6.0 360 / 181035.7 -6.6 8.0
2017-Nov-10 12:00N 44°18' W 087°18'1212.0 350 / 151035.0 -5.8 7.3
2017-Nov-10 11:00N 44°06' W 087°18'1312.8 330 / 221034.3 -6.6 7.4
2017-Nov-10 10:00N 43°54' W 087°24'1212.0 330 / 211034.0 -6.9 6.7
2017-Nov-10 09:00N 43°42' W 087°24'1312.8 330 / 211033.0 -6.6 8.5
2017-Nov-10 08:00N 43°30' W 087°30'3612.1 330 / 221032.3 -6.7 8.1
2017-Nov-10 05:00N 42°54' W 087°36'1312.8 340 / 221030.3 -5.2 8.7
2017-Nov-10 04:00N 42°42' W 087°30'1212.0 350 / 201029.9 -4.1 9.3
2017-Nov-10 03:00N 42°30' W 087°30'   320 / 201028.910.8 -3.4 9.3
Track history (hours):
 
Tides and Currents Weather Stations Pressure Air Temp Water Temp Dewpoint Dewpoint Depression Visibility Wind Speed Wind Dir Waves Ship Positions

Stewart J. Cort

Owner: THE INTERLAKE STEAMSHIP COMPANY, Middleburg Heights, OH. More information available from US FCC via Universal Licensing System and Coast Guard Vessel Documentation Center.

Last reported at 2017-Nov-20 03:00 UTC. Time now 2017-Nov-20 04:07 UTC.
Position N 47°06' W 090°48'.

Length 305 m; draft 6.1 m.

Type: Cargo ship. MMSI: 367050550.

Wind from 190 at 6 knots

Barometer 1010.8 mb
Air temperature -0.8 ° C
Water temperature 4.5 ° C

Date/timePositionNaut miles runAvg speedWind from/ knotsBaromVisibWave heightAir tempDewpointWater temp
2017-Nov-20 03:00N 47°06' W 090°48'1413.6 190 / 61010.8 -0.8 4.5
2017-Nov-20 02:00N 47°12' W 090°30'1212.2 220 / 131011.2 -0.9 4.2
2017-Nov-20 01:00N 47°12' W 090°12'1413.6 260 / 181011.2 -1.1 5.0
2017-Nov-20 00:00N 47°18' W 089°54'1212.2 280 / 181010.8 -1.6 4.8
2017-Nov-19 23:00N 47°18' W 089°36'1212.2 270 / 161011.2 -2.1 4.9
2017-Nov-19 22:00N 47°18' W 089°18'1413.6 270 / 191011.2 -2.4 5.1
2017-Nov-19 21:00N 47°24' W 089°00'1212.2 270 / 201010.810.8 -3.3 5.3
2017-Nov-19 20:00N 47°24' W 088°42'1413.6 240 / 181010.8 -3.5 5.2
2017-Nov-19 19:00N 47°30' W 088°24'1212.2 260 / 161010.8 -3.5 5.8
2017-Nov-19 18:00N 47°30' W 088°06'8 8.1 290 / 181010.8 -4.1 5.8
2017-Nov-19 17:00N 47°30' W 087°54'1212.2 310 / 181011.2 -4.9 5.6
2017-Nov-19 16:00N 47°30' W 087°36'1413.6 270 / 161011.5 -5.0 5.3
2017-Nov-19 15:00N 47°24' W 087°18'1010.1 280 / 181011.2 -5.3 4.7
2017-Nov-19 14:00N 47°18' W 087°06'1212.2 320 / 181010.5 -4.2 5.0
2017-Nov-19 13:00N 47°18' W 086°48'1010.1 310 / 181010.2 -4.0 5.4
2017-Nov-19 12:00N 47°12' W 086°36'1413.6 300 / 221009.1 -3.4 5.5
2017-Nov-19 11:00N 47°06' W 086°18'8 8.2 310 / 281008.1 -3.0 5.3
2017-Nov-19 10:00N 47°06' W 086°06'4110.3 360 / 221007.8 -3.1 5.4
2017-Nov-19 06:00N 46°48' W 085°12'1413.7 330 / 201004.1 -0.3 6.5
2017-Nov-19 05:00N 46°42' W 084°54'1010.2 340 / 201003.4 0.5 7.1
2017-Nov-19 04:00N 46°36' W 084°42'1514.6 340 / 231002.0 1.8 7.4
2017-Nov-19 03:00N 46°24' W 084°30'7 7.3 340 / 261001.4 2.3 6.8
2017-Nov-19 02:00N 46°30' W 084°24'4 4.1 010 / 121001.7 1.7 6.0
2017-Nov-19 01:00N 46°30' W 084°18'0 0.0 1001.1 1.8 6.1
2017-Nov-19 00:00N 46°30' W 084°18'0 0.0 350 / 111001.1 2.2 6.2
2017-Nov-18 23:00N 46°30' W 084°18'6 6.0 340 / 101000.5 2.2 6.2
2017-Nov-18 22:00N 46°24' W 084°18'1010.2 340 / 11999.8 2.5 6.2
2017-Nov-18 21:00N 46°18' W 084°06'6 6.0 310 / 61000.1 2.8 5.7
2017-Nov-18 20:00N 46°12' W 084°06'7 7.3 350 / 10999.1 3.5 5.5
2017-Nov-18 19:00N 46°06' W 084°00'1212.0 340 / 10999.4 3.4 4.7
2017-Nov-18 18:00N 45°54' W 084°00'711.7 020 / 14999.1 3.6 5.2
2017-Nov-18 17:24N 45°52' W 084°10'513.0
2017-Nov-18 17:00N 45°52' W 084°17'2210.3
2017-Nov-18 17:00N 45°54' W 084°18'613.2 360 / 12999.4 3.6 7.9
2017-Nov-18 16:30N 45°51' W 084°26'612.9
2017-Nov-18 16:00N 45°51' W 084°36'3230.8
2017-Nov-18 16:00N 45°48' W 084°36'611.6 030 / 131000.1 3.6 7.1
2017-Nov-18 15:30N 45°49' W 084°44'713.1
2017-Nov-18 15:00N 45°49' W 084°53'1110.8
2017-Nov-18 15:00N 45°48' W 084°54'612.8 010 / 101000.5 2.4 7.3
2017-Nov-18 14:30N 45°50' W 085°03'5 9.5
2017-Nov-18 14:01N 45°47' W 085°09'2109.9
2017-Nov-18 14:00N 45°48' W 085°06'713.6 1000.5 3.0 7.8
2017-Nov-18 13:30N 45°43' W 085°12'612.9
2017-Nov-18 13:00N 45°38' W 085°17'2119.2
2017-Nov-18 13:00N 45°36' W 085°18'510.1 340 / 181000.5 4.0 9.8
2017-Nov-18 12:30N 45°32' W 085°23'613.1
2017-Nov-18 12:01N 45°27' W 085°28'3173.0
2017-Nov-18 12:00N 45°30' W 085°30'917.6 040 / 11999.1 5.9 9.8
2017-Nov-18 11:30N 45°22' W 085°34'713.2
2017-Nov-18 11:00N 45°17' W 085°40'3244.3
2017-Nov-18 11:00N 45°18' W 085°36'918.9 160 / 41000.1 6.3 9.7
2017-Nov-18 10:30N 45°11' W 085°45'611.3
2017-Nov-18 10:00N 45°06' W 085°48'1010.4 340 / 131000.1 5.8 9.3
2017-Nov-18 09:00N 45°00' W 086°00'1817.5 340 / 13999.8 5.6 9.0
2017-Nov-18 08:00N 44°48' W 086°18'1312.7 340 / 16999.810.8 5.5 9.2
2017-Nov-18 07:00N 44°36' W 086°24'1312.7 300 1000.1 5.8 9.8
2017-Nov-18 06:00N 44°24' W 086°30'1212.0 280 / 211001.1 6.4 9.3
2017-Nov-18 05:00N 44°12' W 086°30'1312.8 210 / 171001.8 7.4 9.0
2017-Nov-18 04:00N 44°00' W 086°36'1312.8 200 / 191003.2 7.3 8.6
2017-Nov-18 03:00N 43°48' W 086°42'1212.0 180 / 221003.2 6.7 8.5
2017-Nov-18 02:00N 43°36' W 086°42'1312.8 170 / 201003.9 6.8 9.7
2017-Nov-18 01:00N 43°24' W 086°48'1818.0 170 / 201004.9 7.9 9.3
2017-Nov-18 00:00N 43°06' W 086°48'7913.2 170 / 211005.5 7.9 9.2
2017-Nov-17 18:00N 41°48' W 087°06'1312.8 170 / 181014.7 6.2 9.6
2017-Nov-17 17:00N 41°36' W 087°12'4 4.5 170 / 221016.4 5.4 8.7
2017-Nov-17 16:00N 41°36' W 087°06'0 0.0 160 / 141018.1 4.3 8.5
2017-Nov-17 15:00N 41°36' W 087°06'0 0.0 170 / 141019.4 3.1 8.6
2017-Nov-17 14:00N 41°36' W 087°06'0 0.0 170 / 151019.8 2.5 8.6
2017-Nov-17 13:00N 41°36' W 087°06'0 0.0 160 / 141020.8 2.2 8.6
2017-Nov-17 12:00N 41°36' W 087°06'0 0.0 160 / 121021.8 2.3 8.6
2017-Nov-17 11:00N 41°36' W 087°06'0 0.0 180 / 101021.8 2.4 8.7
2017-Nov-17 10:00N 41°36' W 087°06'0 0.0 140 / 71022.8 2.4 8.7
2017-Nov-17 09:00N 41°36' W 087°06'0 0.0 200 / 51023.5 2.4 8.7
2017-Nov-17 08:00N 41°36' W 087°06'0 0.0 180 / 51023.8 2.5 8.8
2017-Nov-17 07:00N 41°36' W 087°06'0 0.0 150 / 91023.8 2.7 8.8
2017-Nov-17 06:00N 41°36' W 087°06'0 0.0 120 / 41023.8 2.9 8.9
2017-Nov-17 05:00N 41°36' W 087°06'0 0.0 150 / 51024.2 3.2 9.0
2017-Nov-17 04:00N 41°36' W 087°06'0 0.0 150 / 91024.5 3.4 9.0
2017-Nov-17 03:00N 41°36' W 087°06'0 0.0 150 / 41025.2 3.7 9.1
2017-Nov-17 02:00N 41°36' W 087°06'0 0.0 340 / 51024.8 3.8 9.1
2017-Nov-17 01:00N 41°36' W 087°06'0 0.0 020 / 31025.2 3.7 9.3
2017-Nov-17 00:00N 41°36' W 087°06'0 0.0 340 / 31025.2 3.8 9.5
2017-Nov-16 23:00N 41°36' W 087°06'0 0.0 340 / 71025.2 3.6 9.6
2017-Nov-16 22:00N 41°36' W 087°06'0 0.0 350 / 71024.5 3.7 9.6
2017-Nov-16 21:00N 41°36' W 087°06'0 0.0 360 / 111024.2 3.6 9.6
2017-Nov-16 20:00N 41°36' W 087°06'0 0.0 360 / 101023.8 3.8 9.5
2017-Nov-16 19:00N 41°36' W 087°06'0 0.0 330 / 71024.2 3.7 9.4
2017-Nov-16 18:00N 41°36' W 087°06'7 7.5 310 / 111023.8 3.4 9.8
2017-Nov-16 17:00N 41°42' W 087°12'1514.7 330 / 141024.2 2.8 9.2
2017-Nov-16 16:00N 41°48' W 087°30'1212.0 320 / 161024.2 5.4 1.6 8.1
2017-Nov-16 15:00N 42°00' W 087°30'1312.8 330 / 151023.2 2.0 7.8
2017-Nov-16 14:00N 42°12' W 087°36'1312.8 340 / 191022.5 1.6 8.1
2017-Nov-16 13:00N 42°24' W 087°42'1212.0 320 / 201021.5 1.7 7.1
2017-Nov-16 12:00N 42°36' W 087°42'1212.0 270 / 191020.4 1.6 6.6
2017-Nov-16 11:00N 42°48' W 087°42'6 6.0 320 / 161019.1 1.9 6.6
2017-Nov-16 10:00N 42°54' W 087°42'7 7.4 330 / 151018.1 1.9 7.0
2017-Nov-16 09:00N 43°00' W 087°48'1212.0 320 / 151017.1 2.0 6.2
2017-Nov-16 08:00N 43°12' W 087°48'1312.8 310 / 281016.4 1.9 5.6
2017-Nov-16 07:00N 43°24' W 087°42'6 6.0 310 / 311014.7 2.0 5.4
2017-Nov-16 06:00N 43°30' W 087°42'1212.0 300 / 271014.0 2.2 5.2
2017-Nov-16 05:00N 43°42' W 087°42'1312.8 300 / 231013.0 2.2 4.9
2017-Nov-16 04:00N 43°54' W 087°36'6 6.0 290 / 301011.3 2.1 4.9
2017-Nov-16 03:00N 44°00' W 087°36'7 7.4 280 / 241011.0 2.1 5.1
2017-Nov-16 02:00N 44°06' W 087°30'1212.0 300 / 261009.3 2.4 5.2
2017-Nov-16 01:00N 44°18' W 087°30'1312.7 280 / 291007.9 4.1 5.2
2017-Nov-16 00:00N 44°30' W 087°24'7 7.4 300 / 211006.9 5.8 6.4
2017-Nov-15 23:00N 44°36' W 087°18'1312.7 290 / 241005.5 6.2 5.6
2017-Nov-15 22:00N 44°48' W 087°12'7 7.4 300 / 211004.5 6.6 6.7
2017-Nov-15 21:00N 44°54' W 087°06'7 7.4 300 / 221003.9 6.5 7.1
2017-Nov-15 20:00N 45°00' W 087°00'1514.7 300 / 171002.810.8 6.6 7.9
2017-Nov-15 19:00N 45°12' W 086°48'7 7.3 260 / 111002.8 6.8 7.9
2017-Nov-15 18:00N 45°18' W 086°42'1312.7 230 / 131003.2 6.6 8.2
2017-Nov-15 17:00N 45°30' W 086°36'1010.3 220 / 181003.9 6.9 8.4
2017-Nov-15 16:00N 45°36' W 086°24'1010.3 210 / 221005.2 5.4 7.7 9.7
2017-Nov-15 15:00N 45°42' W 086°12'1010.3 210 / 231006.6 8.1 9.2
2017-Nov-15 14:00N 45°48' W 086°00'270.6 180 / 211007.6 7.7 9.5
2017-Nov-15 13:57N 45°48' W 085°56'511.3
2017-Nov-15 13:30N 45°50' W 085°50'611.7
2017-Nov-15 13:00N 45°52' W 085°42'2123.1
2017-Nov-15 13:00N 45°54' W 085°42'611.8 170 / 221009.3 7.0 8.3
2017-Nov-15 12:30N 45°54' W 085°34'611.9
2017-Nov-15 12:00N 45°53' W 085°25'169.4
2017-Nov-15 12:00N 45°54' W 085°24'511.0 180 / 251010.3 6.4 8.1
2017-Nov-15 11:30N 45°53' W 085°17'612.1
2017-Nov-15 11:00N 45°52' W 085°08'4243.5
2017-Nov-15 11:00N 45°54' W 085°12'919.3 170 / 181012.0 5.9 7.5
2017-Nov-15 10:30N 45°51' W 084°59'612.2
2017-Nov-15 10:00N 45°50' W 084°51'3197.2
2017-Nov-15 10:00N 45°48' W 084°54'817.3 150 / 161013.7 4.8 7.8
2017-Nov-15 09:30N 45°49' W 084°42'510.8
2017-Nov-15 09:00N 45°51' W 084°35'3217.8
2017-Nov-15 09:00N 45°48' W 084°36'816.4 160 / 211014.7 4.8 8.0
2017-Nov-15 08:30N 45°52' W 084°26'611.8
2017-Nov-15 08:00N 45°54' W 084°18'1312.5 160 / 221016.0 5.5 8.3
2017-Nov-15 07:00N 45°54' W 084°00'7 7.3 180 / 201017.4 5.6 6.6
2017-Nov-15 06:00N 46°00' W 083°54'7 7.3 170 / 121018.1 5.7 4.2
2017-Nov-15 05:00N 46°06' W 084°00'1514.6 160 / 91018.1 5.7 5.6
2017-Nov-15 04:00N 46°18' W 084°12'6 6.0 160 / 151018.1 5.7 6.4
2017-Nov-15 03:00N 46°24' W 084°12'7 7.3 160 / 131018.8 5.6 6.8
2017-Nov-15 02:00N 46°30' W 084°18'4 4.1 140 / 111018.8 5.4 6.8
2017-Nov-15 01:00N 46°30' W 084°24'0 0.0 140 / 61020.3 4.3 6.8
2017-Nov-15 00:00N 46°30' W 084°24'0 0.0 130 / 91020.0 4.1 6.8
2017-Nov-14 23:00N 46°30' W 084°24'7 7.3 130 / 91020.3 3.9 6.8
2017-Nov-14 22:00N 46°24' W 084°30'1514.6 120 / 101020.0 4.7 7.6
2017-Nov-14 21:00N 46°36' W 084°42'1010.2 140 / 181019.6 5.5 8.0
2017-Nov-14 20:00N 46°42' W 084°54'1010.2 150 / 151020.0 6.2 7.9
2017-Nov-14 19:00N 46°48' W 085°06'1413.7 180 / 111020.710.8 5.3 7.0
2017-Nov-14 18:00N 46°54' W 085°24'1413.7 180 / 221020.3 4.6 6.0
2017-Nov-14 17:00N 47°00' W 085°42'5811.6 200 / 231021.3 4.2 6.0
2017-Nov-14 12:00N 47°24' W 087°00'1413.6 180 / 221020.7 4.3 5.3
2017-Nov-14 11:00N 47°30' W 087°18'1212.2 180 / 211021.0 4.4 5.4
2017-Nov-14 10:00N 47°30' W 087°36'1413.5 160 / 181021.0 4.2 5.5
2017-Nov-14 09:00N 47°36' W 087°54'1212.1 180 / 131022.0 3.9 5.9
2017-Nov-14 08:00N 47°36' W 088°12'1413.5 170 / 101022.7 3.6 5.2
2017-Nov-14 07:00N 47°30' W 088°30'1212.2 190 / 221023.0 3.7 6.3
2017-Nov-14 06:00N 47°30' W 088°48'1212.2 170 / 111023.4 3.1 5.5
2017-Nov-14 05:00N 47°30' W 089°06'1413.6 170 / 131023.7 3.8 5.3
2017-Nov-14 04:00N 47°24' W 089°24'1212.2 170 / 151024.0 3.7 5.4
2017-Nov-14 03:00N 47°24' W 089°42'1413.6 130 / 91024.4 3.4 4.9
2017-Nov-14 02:00N 47°18' W 090°00'1212.2 130 / 101024.7 3.4 4.7
2017-Nov-14 01:00N 47°18' W 090°18'1413.6 120 / 81024.7 3.3 4.3
2017-Nov-14 00:00N 47°12' W 090°36'8 8.2 110 / 91025.4 2.4 4.3
2017-Nov-13 23:00N 47°12' W 090°48'1413.6 110 / 91025.4 2.2 4.9
2017-Nov-13 22:00N 47°06' W 091°06'1413.7 110 / 81026.1 2.3 4.8
2017-Nov-13 21:00N 47°00' W 091°24'1010.2 080 / 91026.4 2.0 4.5
2017-Nov-13 20:00N 46°54' W 091°36'1413.7 070 / 41027.1 1.3 4.5
2017-Nov-13 19:00N 46°48' W 091°54'7 7.3 060 / 51027.8 -0.4 4.6
2017-Nov-13 18:00N 46°42' W 092°00'0 0.0 340 / 11029.5 -1.1 1.6
2017-Nov-13 17:00N 46°42' W 092°00'0 0.0 270 1030.1 -2.2 1.8
2017-Nov-13 16:00N 46°42' W 092°00'0 0.0 340 / 11030.5 -3.0 1.7
2017-Nov-13 15:00N 46°42' W 092°00'0 0.0 190 / 11030.1 -4.3 1.6
2017-Nov-13 14:00N 46°42' W 092°00'0 0.0 190 / 31029.8 -5.3 1.1
2017-Nov-13 13:00N 46°42' W 092°00'0 0.0 230 / 21029.8 -6.2 1.1
2017-Nov-13 12:00N 46°42' W 092°00'0 0.0 210 / 51029.5 -6.3 0.9
2017-Nov-13 11:00N 46°42' W 092°00'0 0.0 240 / 41029.8 -6.2 1.1
2017-Nov-13 10:00N 46°42' W 092°00'0 0.0 220 / 41029.5 -5.4 1.2
2017-Nov-13 09:00N 46°42' W 092°00'0 0.0 180 / 51029.8 -5.6 1.4
2017-Nov-13 08:00N 46°42' W 092°00'0 0.0 200 / 41029.8 -3.4 2.1
2017-Nov-13 07:00N 46°42' W 092°00'0 0.0 250 / 31029.8 -1.4 0.9
2017-Nov-13 06:00N 46°42' W 092°00'0 0.0 270 / 31029.5 -0.9 0.8
2017-Nov-13 05:00N 46°42' W 092°00'7 7.3 180 / 31029.5 -0.2 0.4
2017-Nov-13 04:00N 46°48' W 092°06'0 0.0 200 / 21029.1 -0.5 2.1
2017-Nov-13 03:00N 46°48' W 092°06'2 2.4 210 / 21029.5 -0.1 1.9
2017-Nov-13 02:00N 46°46' W 092°06'2713.0
2017-Nov-13 02:00N 46°48' W 092°06'2 4.8 180 / 11028.8 -0.4 2.1
2017-Nov-13 01:30N 46°46' W 092°06'0 0.0
2017-Nov-13 01:00N 46°46' W 092°06'2611.1
2017-Nov-13 01:00N 46°48' W 092°06'2 4.8 270 / 31028.8 -0.5 2.4
2017-Nov-13 00:30N 46°46' W 092°06'0 0.0
2017-Nov-13 00:00N 46°46' W 092°06'2612.6
2017-Nov-13 00:00N 46°48' W 092°06'2 4.8 220 / 21028.8 -0.0 2.3
2017-Nov-12 23:30N 46°46' W 092°06'0 0.0
2017-Nov-12 23:00N 46°46' W 092°06'2612.7
2017-Nov-12 23:00N 46°48' W 092°06'2 4.8 240 / 51028.8 -0.5 2.6
2017-Nov-12 22:30N 46°46' W 092°06'0 0.0
2017-Nov-12 22:00N 46°46' W 092°06'2534.7
2017-Nov-12 22:00N 46°48' W 092°06'2 4.8 270 / 71028.4 -0.3 2.7
2017-Nov-12 21:30N 46°46' W 092°06'0 0.0
2017-Nov-12 21:00N 46°46' W 092°06'2713.0
2017-Nov-12 21:00N 46°48' W 092°06'2 4.8 280 / 81027.8 0.2 2.7
2017-Nov-12 20:30N 46°46' W 092°06'2 4.7
2017-Nov-12 20:00N 46°48' W 092°06'251.5 260 / 61027.8 0.5 2.7
2017-Nov-12 19:57N 46°46' W 092°06'0 0.0
2017-Nov-12 19:30N 46°46' W 092°06'0 0.0
2017-Nov-12 19:00N 46°46' W 092°06'2713.0
2017-Nov-12 19:00N 46°48' W 092°06'2 4.4 220 / 51027.8 0.4 2.7
2017-Nov-12 18:27N 46°46' W 092°06'0 0.0
2017-Nov-12 18:00N 46°46' W 092°06'2777.8
2017-Nov-12 18:00N 46°48' W 092°06'2 4.8 250 / 61028.1 0.4 2.6
2017-Nov-12 17:30N 46°46' W 092°06'0 0.0
2017-Nov-12 17:00N 46°46' W 092°06'2570.4
2017-Nov-12 17:00N 46°48' W 092°06'2 4.8 210 / 51028.4 -0.0 2.6
2017-Nov-12 16:30N 46°46' W 092°06'0 0.0
2017-Nov-12 16:00N 46°46' W 092°06'2536.1
2017-Nov-12 16:00N 46°48' W 092°06'2 4.5 280 / 41028.4 -0.3 2.8
2017-Nov-12 15:28N 46°46' W 092°06'0 0.3
2017-Nov-12 15:00N 46°46' W 092°06'2166.9
2017-Nov-12 15:00N 46°48' W 092°06'1 2.6 310 / 31028.4 -0.5 2.6
2017-Nov-12 14:31N 46°47' W 092°05'611.8
2017-Nov-12 14:01N 46°49' W 091°58'2118.7
2017-Nov-12 14:00N 46°48' W 092°00'917.6 300 / 41027.8 -0.2 4.9
2017-Nov-12 13:30N 46°51' W 091°48'713.1
2017-Nov-12 13:00N 46°54' W 091°40'2127.7
2017-Nov-12 13:00N 46°54' W 091°42'1413.7 310 / 61026.8 0.4 4.7
2017-Nov-12 12:00N 47°00' W 091°24'1212.3 310 / 41026.4 0.7 4.7
2017-Nov-12 11:00N 47°00' W 091°06'1413.7 020 / 51026.4 0.9 5.1
2017-Nov-12 10:00N 47°06' W 090°48'1413.6 020 / 51025.7 1.2 4.9
2017-Nov-12 09:00N 47°12' W 090°30'1413.6 010 / 51025.4 1.0 4.6
2017-Nov-12 08:00N 47°18' W 090°12'1212.2 030 / 61024.7 1.0 5.4
2017-Nov-12 07:00N 47°18' W 089°54'1717.3 050 / 61024.4 0.7 5.1
2017-Nov-12 06:00N 47°24' W 089°30'2412.2 350 / 91023.7 0.5 5.5
2017-Nov-12 04:00N 47°24' W 088°54'1413.6 360 / 81022.410.8 1.3 6.0
2017-Nov-12 03:00N 47°30' W 088°36'1212.2 340 / 91021.7 1.6 6.5
2017-Nov-12 02:00N 47°30' W 088°18'1616.2 200 / 151021.0 0.7 5.4
2017-Nov-12 01:00N 47°30' W 087°54'1010.1 190 / 121021.0 0.2 6.1
2017-Nov-12 00:00N 47°24' W 087°42'1312.7 230 / 141021.3 -0.6 6.2
2017-Nov-11 23:00N 47°12' W 087°36'1312.7 230 / 161020.7 0.6 6.8
2017-Nov-11 22:00N 47°00' W 087°30'1312.7 230 / 121021.0 -0.0 5.4
2017-Nov-11 21:00N 46°48' W 087°24'1312.7 220 / 181020.7 -0.3 7.0
2017-Nov-11 20:00N 46°36' W 087°18'1212.4 220 / 221021.0 -0.8 7.3
2017-Nov-11 19:00N 46°36' W 087°00'1413.7 210 / 241021.0 -0.4 8.0
2017-Nov-11 18:00N 46°42' W 086°42'8 8.2 200 / 251022.0 0.3 7.1
2017-Nov-11 17:00N 46°42' W 086°30'1413.7 200 / 241023.4 0.3 7.0
2017-Nov-11 16:00N 46°48' W 086°12'1616.4 200 / 131024.7 0.4 7.3
2017-Nov-11 15:00N 46°48' W 085°48'1212.3 170 / 241025.1 -0.8 7.3
2017-Nov-11 14:00N 46°48' W 085°30'1212.3 150 / 221027.1 -2.6 6.7
2017-Nov-11 13:00N 46°48' W 085°12'1212.3 150 / 241028.4 -3.6 6.9
2017-Nov-11 12:00N 46°48' W 084°54'1514.6 180 / 251030.5 -2.5 7.9
2017-Nov-11 11:00N 46°36' W 084°42'1010.2 170 / 211031.8 -4.1 8.5
2017-Nov-11 10:00N 46°30' W 084°30'4 4.1 190 / 201032.5 -6.1 7.0
2017-Nov-11 09:00N 46°30' W 084°24'4 4.1 120 / 41033.5 -7.3 6.6
2017-Nov-11 08:00N 46°30' W 084°18'7 7.3 170 / 61034.3 -6.3 6.2
2017-Nov-11 07:00N 46°24' W 084°12'7 7.3 100 / 81034.0 -6.0 6.0
2017-Nov-11 06:00N 46°18' W 084°06'7 7.3 120 / 51034.3 -6.4 6.0
2017-Nov-11 05:00N 46°12' W 084°00'1312.7 120 / 81034.7 -5.1 5.1
2017-Nov-11 04:00N 46°00' W 083°54'1010.3 110 / 41035.3 -4.4 6.4
2017-Nov-11 03:00N 45°54' W 084°06'334.0 200 / 21036.0 -3.4 9.1
2017-Nov-11 02:55N 45°52' W 084°09'513.4
2017-Nov-11 02:31N 45°52' W 084°17'713.2
2017-Nov-11 02:01N 45°51' W 084°26'3188.7
2017-Nov-11 02:00N 45°54' W 084°24'917.7 220 / 81036.4 -4.7 9.3
2017-Nov-11 01:31N 45°51' W 084°35'611.9
2017-Nov-11 01:01N 45°49' W 084°44'183.0
2017-Nov-11 01:00N 45°48' W 084°42'715.2 180 / 71036.4 -4.9 8.6
2017-Nov-11 00:31N 45°50' W 084°52'612.6
2017-Nov-11 00:00N 45°51' W 085°01'3216.4
2017-Nov-11 00:00N 45°48' W 085°00'816.8 150 / 51036.4 -4.5 8.8
2017-Nov-10 23:31N 45°52' W 085°10'712.9
2017-Nov-10 23:00N 45°53' W 085°19'1129.6
2017-Nov-10 23:00N 45°54' W 085°18'715.0 340 / 31036.4 -4.9 9.2
2017-Nov-10 22:30N 45°54' W 085°29'612.3
2017-Nov-10 22:01N 45°53' W 085°37'290.9
2017-Nov-10 22:00N 45°54' W 085°36'816.3 060 / 21036.7 -5.2 8.9
2017-Nov-10 21:31N 45°50' W 085°45'713.1
2017-Nov-10 21:01N 45°46' W 085°54'293.3
2017-Nov-10 21:00N 45°48' W 085°54'1010.3 140 / 21036.7 -5.1 10.2
2017-Nov-10 20:00N 45°42' W 086°06'1514.6 200 / 41036.7 -4.7 10.9
2017-Nov-10 19:00N 45°30' W 086°18'1717.4 070 / 11036.7 -4.8 10.6
2017-Nov-10 18:00N 45°18' W 086°36'1010.4 060 / 41037.0 -5.1 10.3
2017-Nov-10 17:00N 45°12' W 086°48'1514.7 1037.4 -4.7 10.1
2017-Nov-10 16:00N 45°00' W 087°00'1312.7 330 / 141037.4 -5.3 9.5
2017-Nov-10 15:00N 44°48' W 087°06'1312.7 330 / 181037.0 -6.1 10.2
2017-Nov-10 14:00N 44°36' W 087°12'1312.7 340 / 161036.4 -6.2 9.4
2017-Nov-10 13:00N 44°24' W 087°18'6 6.0 360 / 181035.7 -6.6 8.0
2017-Nov-10 12:00N 44°18' W 087°18'1212.0 350 / 151035.0 -5.8 7.3
2017-Nov-10 11:00N 44°06' W 087°18'1312.8 330 / 221034.3 -6.6 7.4
2017-Nov-10 10:00N 43°54' W 087°24'1212.0 330 / 211034.0 -6.9 6.7
2017-Nov-10 09:00N 43°42' W 087°24'1312.8 330 / 211033.0 -6.6 8.5
2017-Nov-10 08:00N 43°30' W 087°30'3612.1 330 / 221032.3 -6.7 8.1
2017-Nov-10 05:00N 42°54' W 087°36'1312.8 340 / 221030.3 -5.2 8.7
2017-Nov-10 04:00N 42°42' W 087°30'1212.0 350 / 201029.9 -4.1 9.3
2017-Nov-10 03:00N 42°30' W 087°30'   320 / 201028.910.8 -3.4 9.3

Dump ship's entire track history